createdAt,value
2018-10-07T09:00:35.397Z,80.70
2018-10-07T09:11:10.624Z,55.60
2018-10-07T09:21:40.268Z,53.20
2018-10-07T09:32:21.449Z,53.30
2018-10-07T09:42:50.036Z,51.10
2018-10-07T09:47:52.376Z,51.20
2018-10-07T09:53:17.651Z,50.50
2018-10-07T11:37:32.340Z,50.20
2018-10-07T11:42:53.820Z,51.10
2018-10-07T11:48:09.867Z,49.50
2018-10-07T11:53:15.564Z,48.80
2018-10-07T11:58:24.737Z,48.40
2018-10-07T12:03:28.275Z,46.90
2018-10-07T12:08:33.152Z,45.00
2018-10-07T12:13:32.037Z,44.10
2018-10-07T12:18:30.074Z,44.60
2018-10-07T12:23:29.363Z,43.70
2018-10-07T12:28:31.742Z,42.40
2018-10-07T12:33:30.758Z,41.40
2018-10-07T12:38:29.982Z,42.40
2018-10-07T12:43:22.043Z,42.00
2018-10-07T12:53:58.730Z,41.10
2018-10-07T12:58:52.750Z,40.50
2018-10-07T13:03:46.813Z,40.50
2018-10-07T13:14:33.689Z,39.90
2018-10-07T13:19:29.312Z,40.10
2018-10-07T13:24:25.279Z,40.10
2018-10-07T13:29:21.103Z,40.10
2018-10-07T13:34:15.498Z,40.30
2018-10-07T13:39:12.730Z,40.20
2018-10-07T13:44:06.294Z,40.20
2018-10-07T13:49:03.349Z,40.70
2018-10-07T13:53:59.426Z,40.00
2018-10-07T13:58:54.999Z,40.90
2018-10-07T14:03:50.970Z,40.50
2018-10-07T14:08:49.418Z,40.90
2018-10-07T14:13:46.851Z,41.70
2018-10-07T14:18:42.480Z,41.90
2018-10-07T14:23:42.628Z,41.90
2018-10-07T14:28:46.346Z,42.30
2018-10-07T14:34:08.196Z,43.00
2018-10-07T14:39:20.540Z,43.50
2018-10-07T14:44:43.046Z,44.20
2018-10-07T14:50:01.704Z,45.10
2018-10-07T14:55:33.904Z,45.60
2018-10-07T15:00:40.466Z,45.60
2018-10-07T15:06:05.581Z,46.20
2018-10-07T15:32:21.879Z,46.10
2018-10-07T15:37:38.957Z,47.50
